sensor_id;sensor_type;location;lat;lon;timestamp;pressure;altitude;pressure_sealevel;temperature;humidity
33697;BME280;20031;43.416;23.232;2023-01-31T00:01:13;99642.06;;;3.37;61.21
33697;BME280;20031;43.416;23.232;2023-01-31T00:03:39;99634.47;;;3.35;61.59
33697;BME280;20031;43.416;23.232;2023-01-31T00:08:41;99643.34;;;3.31;61.93
33697;BME280;20031;43.416;23.232;2023-01-31T00:11:07;99647.03;;;3.29;62.80
33697;BME280;20031;43.416;23.232;2023-01-31T00:13:33;99650.53;;;3.28;62.76
33697;BME280;20031;43.416;23.232;2023-01-31T00:15:59;99646.31;;;3.27;62.77
33697;BME280;20031;43.416;23.232;2023-01-31T00:18:25;99647.25;;;3.26;62.91
33697;BME280;20031;43.416;23.232;2023-01-31T00:20:50;99653.47;;;3.23;63.65
33697;BME280;20031;43.416;23.232;2023-01-31T00:23:16;99651.13;;;3.20;63.78
33697;BME280;20031;43.416;23.232;2023-01-31T00:25:41;99650.44;;;3.18;64.81
33697;BME280;20031;43.416;23.232;2023-01-31T00:28:07;99653.97;;;3.17;64.55
33697;BME280;20031;43.416;23.232;2023-01-31T00:30:33;99650.69;;;3.15;64.56
33697;BME280;20031;43.416;23.232;2023-01-31T00:32:59;99650.69;;;3.15;65.60
33697;BME280;20031;43.416;23.232;2023-01-31T00:35:24;99656.06;;;3.12;65.65
33697;BME280;20031;43.416;23.232;2023-01-31T00:37:49;99671.50;;;3.12;65.64
33697;BME280;20031;43.416;23.232;2023-01-31T00:40:15;99672.91;;;3.16;66.23
33697;BME280;20031;43.416;23.232;2023-01-31T00:42:41;99669.63;;;3.14;66.52
33697;BME280;20031;43.416;23.232;2023-01-31T00:45:08;99686.94;;;3.12;67.20
33697;BME280;20031;43.416;23.232;2023-01-31T00:47:33;99675.59;;;3.15;67.21
33697;BME280;20031;43.416;23.232;2023-01-31T00:49:59;99684.66;;;3.30;66.33
33697;BME280;20031;43.416;23.232;2023-01-31T00:52:24;99684.88;;;3.58;63.15
33697;BME280;20031;43.416;23.232;2023-01-31T00:54:50;99684.38;;;3.64;61.22
33697;BME280;20031;43.416;23.232;2023-01-31T00:57:15;99684.38;;;3.64;60.97
33697;BME280;20031;43.416;23.232;2023-01-31T00:59:41;99686.72;;;3.87;58.01
33697;BME280;20031;43.416;23.232;2023-01-31T01:02:06;99687.09;;;4.03;55.80
33697;BME280;20031;43.416;23.232;2023-01-31T01:04:31;99677.53;;;4.14;53.48
33697;BME280;20031;43.416;23.232;2023-01-31T01:06:57;99672.50;;;4.13;53.45
33697;BME280;20031;43.416;23.232;2023-01-31T01:09:22;99669.25;;;4.11;53.20
33697;BME280;20031;43.416;23.232;2023-01-31T01:11:48;99656.50;;;4.09;53.06
33697;BME280;20031;43.416;23.232;2023-01-31T01:14:14;99655.81;;;4.07;52.38
33697;BME280;20031;43.416;23.232;2023-01-31T01:16:40;99668.13;;;4.04;52.38
33697;BME280;20031;43.416;23.232;2023-01-31T01:19:09;99666.75;;;4.00;52.65
33697;BME280;20031;43.416;23.232;2023-01-31T01:21:35;99669.47;;;3.99;52.23
33697;BME280;20031;43.416;23.232;2023-01-31T01:24:07;99676.53;;;4.06;50.76
33697;BME280;20031;43.416;23.232;2023-01-31T01:26:35;99680.75;;;4.07;50.59
33697;BME280;20031;43.416;23.232;2023-01-31T01:29:01;99687.44;;;4.09;50.27
33697;BME280;20031;43.416;23.232;2023-01-31T01:31:27;99692.19;;;4.14;49.88
33697;BME280;20031;43.416;23.232;2023-01-31T01:34:01;99694.25;;;4.20;48.68
33697;BME280;20031;43.416;23.232;2023-01-31T01:36:27;99688.59;;;4.26;48.38
33697;BME280;20031;43.416;23.232;2023-01-31T01:38:53;99688.06;;;4.32;47.79
33697;BME280;20031;43.416;23.232;2023-01-31T01:41:20;99679.72;;;4.39;47.18
33697;BME280;20031;43.416;23.232;2023-01-31T01:43:46;99686.72;;;4.37;47.87
33697;BME280;20031;43.416;23.232;2023-01-31T01:46:18;99678.47;;;4.34;47.88
33697;BME280;20031;43.416;23.232;2023-01-31T01:48:46;99690.50;;;4.33;48.21
33697;BME280;20031;43.416;23.232;2023-01-31T01:51:14;99697.25;;;4.25;47.99
33697;BME280;20031;43.416;23.232;2023-01-31T01:53:46;99701.03;;;4.21;49.15
33697;BME280;20031;43.416;23.232;2023-01-31T01:56:16;99714.22;;;4.27;49.50
33697;BME280;20031;43.416;23.232;2023-01-31T01:58:54;99727.84;;;4.39;49.71
33697;BME280;20031;43.416;23.232;2023-01-31T02:01:21;99724.25;;;4.51;50.77
33697;BME280;20031;43.416;23.232;2023-01-31T02:03:50;99726.72;;;4.61;51.32
33697;BME280;20031;43.416;23.232;2023-01-31T02:06:17;99733.53;;;4.62;52.17
33697;BME280;20031;43.416;23.232;2023-01-31T02:08:42;99737.75;;;4.63;52.18
33697;BME280;20031;43.416;23.232;2023-01-31T02:11:26;99738.56;;;4.64;53.11
33697;BME280;20031;43.416;23.232;2023-01-31T02:14:10;99746.03;;;4.67;53.20
33697;BME280;20031;43.416;23.232;2023-01-31T02:16:36;99744.97;;;4.69;53.17
33697;BME280;20031;43.416;23.232;2023-01-31T02:19:05;99738.34;;;4.76;53.58
33697;BME280;20031;43.416;23.232;2023-01-31T02:30:00;99752.03;;;4.67;55.52
33697;BME280;20031;43.416;23.232;2023-01-31T02:32:57;99750.66;;;4.63;56.01
33697;BME280;20031;43.416;23.232;2023-01-31T02:46:20;99754.94;;;4.33;57.78
33697;BME280;20031;43.416;23.232;2023-01-31T02:51:23;99751.00;;;4.29;58.66
33697;BME280;20031;43.416;23.232;2023-01-31T02:53:58;99762.00;;;4.31;59.44
33697;BME280;20031;43.416;23.232;2023-01-31T02:56:30;99755.78;;;4.34;59.88
33697;BME280;20031;43.416;23.232;2023-01-31T02:59:01;99750.03;;;4.30;60.00
33697;BME280;20031;43.416;23.232;2023-01-31T03:01:31;99753.75;;;4.37;60.31
33697;BME280;20031;43.416;23.232;2023-01-31T03:03:58;99752.13;;;4.36;60.04
33697;BME280;20031;43.416;23.232;2023-01-31T03:08:58;99760.94;;;4.34;60.16
33697;BME280;20031;43.416;23.232;2023-01-31T03:11:51;99772.19;;;4.33;60.21
33697;BME280;20031;43.416;23.232;2023-01-31T03:14:32;99769.19;;;4.28;60.06
33697;BME280;20031;43.416;23.232;2023-01-31T03:17:07;99781.22;;;4.27;60.33
33697;BME280;20031;43.416;23.232;2023-01-31T03:20:17;99778.38;;;4.30;60.38
33697;BME280;20031;43.416;23.232;2023-01-31T03:22:53;99785.44;;;4.28;60.23
33697;BME280;20031;43.416;23.232;2023-01-31T03:25:24;99782.41;;;4.23;60.34
33697;BME280;20031;43.416;23.232;2023-01-31T03:27:53;99796.38;;;4.21;60.61
33697;BME280;20031;43.416;23.232;2023-01-31T03:30:27;99790.28;;;4.22;60.93
33697;BME280;20031;43.416;23.232;2023-01-31T03:32:58;99787.81;;;4.20;60.84
33697;BME280;20031;43.416;23.232;2023-01-31T03:35:28;99804.38;;;4.18;60.87
33697;BME280;20031;43.416;23.232;2023-01-31T03:38:04;99794.28;;;4.15;60.50
33697;BME280;20031;43.416;23.232;2023-01-31T03:40:37;99792.78;;;4.12;60.32
33697;BME280;20031;43.416;23.232;2023-01-31T03:45:37;99800.81;;;4.19;60.10
33697;BME280;20031;43.416;23.232;2023-01-31T03:48:06;99790.28;;;4.22;59.69
33697;BME280;20031;43.416;23.232;2023-01-31T03:50:44;99792.50;;;4.26;59.62
33697;BME280;20031;43.416;23.232;2023-01-31T03:55:50;99787.69;;;4.22;59.28
33697;BME280;20031;43.416;23.232;2023-01-31T03:58:19;99785.25;;;4.20;59.61
33697;BME280;20031;43.416;23.232;2023-01-31T04:00:46;99781.47;;;4.24;58.63
33697;BME280;20031;43.416;23.232;2023-01-31T04:05:47;99782.06;;;4.28;58.23
33697;BME280;20031;43.416;23.232;2023-01-31T04:08:13;99778.78;;;4.26;57.94
33697;BME280;20031;43.416;23.232;2023-01-31T04:10:39;99771.28;;;4.23;57.97
33697;BME280;20031;43.416;23.232;2023-01-31T04:13:05;99781.84;;;4.20;57.95
33697;BME280;20031;43.416;23.232;2023-01-31T04:15:31;99768.72;;;4.23;57.78
33697;BME280;20031;43.416;23.232;2023-01-31T04:17:56;99767.28;;;4.30;57.21
33697;BME280;20031;43.416;23.232;2023-01-31T04:20:22;99771.38;;;4.32;57.16
33697;BME280;20031;43.416;23.232;2023-01-31T04:22:47;99774.06;;;4.31;57.22
33697;BME280;20031;43.416;23.232;2023-01-31T04:25:12;99778.47;;;4.40;57.06
33697;BME280;20031;43.416;23.232;2023-01-31T04:27:38;99784.69;;;4.37;57.18
33697;BME280;20031;43.416;23.232;2023-01-31T04:30:05;99791.41;;;4.29;57.50
33697;BME280;20031;43.416;23.232;2023-01-31T04:32:30;99796.69;;;4.27;57.35
33697;BME280;20031;43.416;23.232;2023-01-31T04:34:56;99792.59;;;4.25;58.10
33697;BME280;20031;43.416;23.232;2023-01-31T04:37:21;99796.25;;;4.22;58.31
33697;BME280;20031;43.416;23.232;2023-01-31T04:39:46;99792.97;;;4.20;58.31
33697;BME280;20031;43.416;23.232;2023-01-31T04:42:12;99791.63;;;4.16;58.85
33697;BME280;20031;43.416;23.232;2023-01-31T04:44:37;99797.31;;;4.20;59.19
33697;BME280;20031;43.416;23.232;2023-01-31T04:47:03;99793.56;;;4.24;59.37
33697;BME280;20031;43.416;23.232;2023-01-31T04:49:28;99788.81;;;4.29;59.45
33697;BME280;20031;43.416;23.232;2023-01-31T04:51:53;99781.94;;;4.29;59.28
33697;BME280;20031;43.416;23.232;2023-01-31T04:54:20;99794.81;;;4.29;59.23
33697;BME280;20031;43.416;23.232;2023-01-31T04:56:45;99796.13;;;4.24;59.27
33697;BME280;20031;43.416;23.232;2023-01-31T04:59:11;99811.72;;;4.22;59.89
33697;BME280;20031;43.416;23.232;2023-01-31T05:01:36;99805.19;;;4.18;60.55
33697;BME280;20031;43.416;23.232;2023-01-31T05:04:02;99804.38;;;4.18;60.03
33697;BME280;20031;43.416;23.232;2023-01-31T05:06:27;99805.31;;;4.17;60.90
33697;BME280;20031;43.416;23.232;2023-01-31T05:08:53;99817.38;;;4.16;61.34
33697;BME280;20031;43.416;23.232;2023-01-31T05:11:19;99808.56;;;4.19;61.51
33697;BME280;20031;43.416;23.232;2023-01-31T05:13:45;99808.81;;;4.16;62.06
33697;BME280;20031;43.416;23.232;2023-01-31T05:16:11;99809.44;;;4.08;62.12
33697;BME280;20031;43.416;23.232;2023-01-31T05:18:37;99813.66;;;4.09;62.67
33697;BME280;20031;43.416;23.232;2023-01-31T05:21:04;99810.25;;;4.09;63.01
33697;BME280;20031;43.416;23.232;2023-01-31T05:23:31;99822.69;;;4.04;62.41
33697;BME280;20031;43.416;23.232;2023-01-31T05:25:57;99802.72;;;3.97;63.49
33697;BME280;20031;43.416;23.232;2023-01-31T05:28:23;99808.41;;;4.00;63.46
33697;BME280;20031;43.416;23.232;2023-01-31T05:30:53;99806.78;;;3.99;63.22
33697;BME280;20031;43.416;23.232;2023-01-31T05:33:18;99805.09;;;4.09;63.56
33697;BME280;20031;43.416;23.232;2023-01-31T05:35:46;99816.66;;;4.14;62.90
33697;BME280;20031;43.416;23.232;2023-01-31T05:38:11;99810.00;;;4.12;63.10
33697;BME280;20031;43.416;23.232;2023-01-31T05:40:37;99801.59;;;4.10;63.05
33697;BME280;20031;43.416;23.232;2023-01-31T05:43:03;99796.44;;;4.10;63.11
33697;BME280;20031;43.416;23.232;2023-01-31T05:45:29;99803.22;;;4.11;63.14
33697;BME280;20031;43.416;23.232;2023-01-31T05:47:55;99801.47;;;4.11;62.97
33697;BME280;20031;43.416;23.232;2023-01-31T05:50:20;99806.59;;;4.11;63.19
33697;BME280;20031;43.416;23.232;2023-01-31T05:52:56;99811.09;;;4.09;62.93
33697;BME280;20031;43.416;23.232;2023-01-31T05:55:24;99813.97;;;4.16;62.98
33697;BME280;20031;43.416;23.232;2023-01-31T05:57:51;99814.56;;;4.19;63.15
33697;BME280;20031;43.416;23.232;2023-01-31T06:00:16;99811.59;;;4.24;62.91
33697;BME280;20031;43.416;23.232;2023-01-31T06:02:42;99820.72;;;4.28;62.31
33697;BME280;20031;43.416;23.232;2023-01-31T06:05:08;99822.91;;;4.32;62.91
33697;BME280;20031;43.416;23.232;2023-01-31T06:07:33;99825.09;;;4.37;62.68
33697;BME280;20031;43.416;23.232;2023-01-31T06:10:01;99831.91;;;4.38;62.50
33697;BME280;20031;43.416;23.232;2023-01-31T06:12:27;99838.94;;;4.36;62.36
33697;BME280;20031;43.416;23.232;2023-01-31T06:14:53;99833.78;;;4.36;62.39
33697;BME280;20031;43.416;23.232;2023-01-31T06:17:18;99832.13;;;4.35;62.75
33697;BME280;20031;43.416;23.232;2023-01-31T06:19:44;99840.81;;;4.34;62.93
33697;BME280;20031;43.416;23.232;2023-01-31T06:22:09;99847.50;;;4.36;63.08
33697;BME280;20031;43.416;23.232;2023-01-31T06:24:35;99853.22;;;4.40;63.37
33697;BME280;20031;43.416;23.232;2023-01-31T06:27:00;99848.19;;;4.38;63.76
33697;BME280;20031;43.416;23.232;2023-01-31T06:29:25;99861.88;;;4.39;63.33
33697;BME280;20031;43.416;23.232;2023-01-31T06:31:51;99862.84;;;4.38;63.75
33697;BME280;20031;43.416;23.232;2023-01-31T06:34:18;99862.00;;;4.37;63.94
33697;BME280;20031;43.416;23.232;2023-01-31T06:36:44;99868.00;;;4.38;63.71
33697;BME280;20031;43.416;23.232;2023-01-31T06:39:11;99865.41;;;4.58;63.78
33697;BME280;20031;43.416;23.232;2023-01-31T06:41:36;99864.97;;;4.73;63.25
33697;BME280;20031;43.416;23.232;2023-01-31T06:44:02;99879.06;;;4.69;63.34
33697;BME280;20031;43.416;23.232;2023-01-31T06:46:27;99869.31;;;4.73;62.89
33697;BME280;20031;43.416;23.232;2023-01-31T06:48:53;99876.91;;;4.74;62.33
33697;BME280;20031;43.416;23.232;2023-01-31T06:51:19;99887.00;;;4.77;62.49
33697;BME280;20031;43.416;23.232;2023-01-31T06:53:44;99884.03;;;4.82;62.50
33697;BME280;20031;43.416;23.232;2023-01-31T06:56:10;99896.28;;;4.89;62.28
33697;BME280;20031;43.416;23.232;2023-01-31T06:58:35;99885.31;;;4.97;62.84
33697;BME280;20031;43.416;23.232;2023-01-31T07:01:10;99885.19;;;4.98;62.60
33697;BME280;20031;43.416;23.232;2023-01-31T07:03:36;99892.56;;;5.03;61.84
33697;BME280;20031;43.416;23.232;2023-01-31T07:06:03;99899.56;;;5.11;61.98
33697;BME280;20031;43.416;23.232;2023-01-31T07:08:29;99899.84;;;5.18;61.65
33697;BME280;20031;43.416;23.232;2023-01-31T07:10:55;99900.28;;;5.23;61.61
33697;BME280;20031;43.416;23.232;2023-01-31T07:13:21;99904.34;;;5.25;60.80
33697;BME280;20031;43.416;23.232;2023-01-31T07:15:46;99908.44;;;5.28;61.28
33697;BME280;20031;43.416;23.232;2023-01-31T07:18:12;99914.19;;;5.31;61.09
33697;BME280;20031;43.416;23.232;2023-01-31T07:20:41;99920.84;;;5.34;60.59
33697;BME280;20031;43.416;23.232;2023-01-31T07:23:07;99925.06;;;5.35;60.85
33697;BME280;20031;43.416;23.232;2023-01-31T07:25:34;99916.13;;;5.39;61.01
33697;BME280;20031;43.416;23.232;2023-01-31T07:28:00;99918.44;;;5.42;60.08
33697;BME280;20031;43.416;23.232;2023-01-31T07:30:26;99913.00;;;5.45;60.43
33697;BME280;20031;43.416;23.232;2023-01-31T07:32:52;99912.75;;;5.48;59.93
33697;BME280;20031;43.416;23.232;2023-01-31T07:35:18;99922.13;;;5.49;60.76
33697;BME280;20031;43.416;23.232;2023-01-31T07:37:44;99910.44;;;5.45;60.04
33697;BME280;20031;43.416;23.232;2023-01-31T07:40:11;99917.88;;;5.38;60.76
33697;BME280;20031;43.416;23.232;2023-01-31T07:42:37;99918.00;;;5.37;60.76
33697;BME280;20031;43.416;23.232;2023-01-31T07:45:04;99917.19;;;5.36;61.06
33697;BME280;20031;43.416;23.232;2023-01-31T07:47:29;99916.38;;;5.36;60.82
33697;BME280;20031;43.416;23.232;2023-01-31T07:49:55;99914.59;;;5.36;61.78
33697;BME280;20031;43.416;23.232;2023-01-31T07:52:20;99913.41;;;5.40;61.38
33697;BME280;20031;43.416;23.232;2023-01-31T07:54:46;99918.44;;;5.42;61.62
33697;BME280;20031;43.416;23.232;2023-01-31T07:57:11;99916.66;;;5.42;61.82
33697;BME280;20031;43.416;23.232;2023-01-31T07:59:37;99922.66;;;5.43;61.55
33697;BME280;20031;43.416;23.232;2023-01-31T08:02:03;99915.31;;;5.48;61.88
33697;BME280;20031;43.416;23.232;2023-01-31T08:04:47;99920.94;;;5.53;61.90
33697;BME280;20031;43.416;23.232;2023-01-31T08:07:12;99918.22;;;5.54;61.73
33697;BME280;20031;43.416;23.232;2023-01-31T08:09:38;99921.34;;;5.57;61.54
33697;BME280;20031;43.416;23.232;2023-01-31T08:12:04;99914.72;;;5.64;61.17
33697;BME280;20031;43.416;23.232;2023-01-31T08:14:30;99927.94;;;5.71;61.07
33697;BME280;20031;43.416;23.232;2023-01-31T08:16:57;99913.00;;;5.74;60.76
33697;BME280;20031;43.416;23.232;2023-01-31T08:19:22;99909.34;;;5.77;60.47
33697;BME280;20031;43.416;23.232;2023-01-31T08:21:48;99913.00;;;5.74;60.40
33697;BME280;20031;43.416;23.232;2023-01-31T08:24:13;99909.34;;;5.77;60.13
33697;BME280;20031;43.416;23.232;2023-01-31T08:26:41;99912.47;;;5.80;60.45
33697;BME280;20031;43.416;23.232;2023-01-31T08:29:06;99916.69;;;5.81;59.81
33697;BME280;20031;43.416;23.232;2023-01-31T08:31:31;99918.34;;;5.82;59.99
33697;BME280;20031;43.416;23.232;2023-01-31T08:33:57;99922.41;;;5.85;60.04
33697;BME280;20031;43.416;23.232;2023-01-31T08:36:26;99924.06;;;5.86;59.66
33697;BME280;20031;43.416;23.232;2023-01-31T08:38:52;99930.59;;;5.90;59.55
33697;BME280;20031;43.416;23.232;2023-01-31T08:41:19;99929.13;;;5.97;60.22
33697;BME280;20031;43.416;23.232;2023-01-31T08:43:45;99931.69;;;6.06;59.85
33697;BME280;20031;43.416;23.232;2023-01-31T08:46:13;99925.63;;;6.16;59.45
33697;BME280;20031;43.416;23.232;2023-01-31T08:48:39;99922.63;;;6.21;59.19
33697;BME280;20031;43.416;23.232;2023-01-31T08:51:08;99930.66;;;6.18;58.93
33697;BME280;20031;43.416;23.232;2023-01-31T08:53:37;99931.59;;;6.17;58.82
33697;BME280;20031;43.416;23.232;2023-01-31T08:56:04;99933.38;;;6.16;59.21
33697;BME280;20031;43.416;23.232;2023-01-31T08:58:31;99944.78;;;6.14;59.70
33697;BME280;20031;43.416;23.232;2023-01-31T09:01:09;99958.53;;;6.14;59.04
33697;BME280;20031;43.416;23.232;2023-01-31T09:03:36;99941.66;;;6.20;59.20
33697;BME280;20031;43.416;23.232;2023-01-31T09:06:04;99932.56;;;6.25;59.18
33697;BME280;20031;43.416;23.232;2023-01-31T09:08:30;99940.19;;;6.27;58.42
33697;BME280;20031;43.416;23.232;2023-01-31T09:10:56;99936.53;;;6.29;59.05
33697;BME280;20031;43.416;23.232;2023-01-31T09:13:25;99936.50;;;6.39;58.50
33697;BME280;20031;43.416;23.232;2023-01-31T09:16:08;99927.25;;;6.46;58.57
33697;BME280;20031;43.416;23.232;2023-01-31T09:18:35;99930.69;;;6.46;58.17
33697;BME280;20031;43.416;23.232;2023-01-31T09:21:05;99923.06;;;6.45;57.55
33697;BME280;20031;43.416;23.232;2023-01-31T09:23:32;99926.59;;;6.44;57.04
33697;BME280;20031;43.416;23.232;2023-01-31T09:25:58;99938.72;;;6.43;57.64
33697;BME280;20031;43.416;23.232;2023-01-31T09:28:23;99924.81;;;6.44;57.50
33697;BME280;20031;43.416;23.232;2023-01-31T09:30:49;99917.88;;;6.45;58.05
33697;BME280;20031;43.416;23.232;2023-01-31T09:33:17;99924.41;;;6.49;57.71
33697;BME280;20031;43.416;23.232;2023-01-31T09:35:54;99919.38;;;6.57;57.98
33697;BME280;20031;43.416;23.232;2023-01-31T09:38:19;99912.28;;;6.58;57.71
33697;BME280;20031;43.416;23.232;2023-01-31T09:40:45;99922.38;;;6.61;58.20
33697;BME280;20031;43.416;23.232;2023-01-31T09:43:11;99910.66;;;6.58;57.28
33697;BME280;20031;43.416;23.232;2023-01-31T09:45:38;99914.19;;;6.57;57.49
33697;BME280;20031;43.416;23.232;2023-01-31T09:48:13;99903.84;;;6.57;58.37
33697;BME280;20031;43.416;23.232;2023-01-31T09:50:42;99909.31;;;6.54;57.62
33697;BME280;20031;43.416;23.232;2023-01-31T09:53:15;99923.75;;;6.56;58.44
33697;BME280;20031;43.416;23.232;2023-01-31T09:58:25;99902.50;;;6.53;58.18
33697;BME280;20031;43.416;23.232;2023-01-31T10:01:31;99903.84;;;6.57;58.29
33697;BME280;20031;43.416;23.232;2023-01-31T10:04:22;99895.69;;;6.70;58.52
33697;BME280;20031;43.416;23.232;2023-01-31T10:07:08;99892.81;;;6.73;58.13
33697;BME280;20031;43.416;23.232;2023-01-31T10:15:02;99895.13;;;6.76;57.95
33697;BME280;20031;43.416;23.232;2023-01-31T10:17:37;99901.38;;;6.74;58.17
33697;BME280;20031;43.416;23.232;2023-01-31T10:23:03;99908.06;;;6.67;58.66
33697;BME280;20031;43.416;23.232;2023-01-31T10:25:45;99886.41;;;6.58;58.18
33697;BME280;20031;43.416;23.232;2023-01-31T10:30:45;99883.81;;;6.58;58.30
33697;BME280;20031;43.416;23.232;2023-01-31T10:33:37;99882.88;;;6.59;57.80
33697;BME280;20031;43.416;23.232;2023-01-31T10:36:12;99876.88;;;6.68;58.03
33697;BME280;20031;43.416;23.232;2023-01-31T10:38:50;99882.88;;;6.69;57.41
33697;BME280;20031;43.416;23.232;2023-01-31T10:41:24;99872.25;;;6.62;57.29
33697;BME280;20031;43.416;23.232;2023-01-31T10:44:03;99874.31;;;6.59;57.46
33697;BME280;20031;43.416;23.232;2023-01-31T10:46:30;99868.19;;;6.60;57.26
33697;BME280;20031;43.416;23.232;2023-01-31T10:48:56;99851.19;;;7.03;57.74
33697;BME280;20031;43.416;23.232;2023-01-31T10:54:21;99872.25;;;7.17;55.50
33697;BME280;20031;43.416;23.232;2023-01-31T10:56:50;99864.66;;;7.07;55.66
33697;BME280;20031;43.416;23.232;2023-01-31T10:59:28;99877.66;;;6.97;55.23
33697;BME280;20031;43.416;23.232;2023-01-31T11:01:56;99872.34;;;6.99;55.22
33697;BME280;20031;43.416;23.232;2023-01-31T11:04:33;99883.50;;;6.99;54.79
33697;BME280;20031;43.416;23.232;2023-01-31T11:07:01;99877.59;;;7.07;54.96
33697;BME280;20031;43.416;23.232;2023-01-31T11:09:31;99871.06;;;7.12;55.33
33697;BME280;20031;43.416;23.232;2023-01-31T11:11:59;99888.22;;;7.22;55.27
33697;BME280;20031;43.416;23.232;2023-01-31T11:14:25;99895.34;;;7.11;54.07
33697;BME280;20031;43.416;23.232;2023-01-31T11:17:00;99884.72;;;7.05;54.76
33697;BME280;20031;43.416;23.232;2023-01-31T11:21:55;99886.63;;;7.03;55.49
33697;BME280;20031;43.416;23.232;2023-01-31T11:24:27;99884.84;;;7.03;54.91
33697;BME280;20031;43.416;23.232;2023-01-31T11:27:09;99876.41;;;7.01;54.87
33697;BME280;20031;43.416;23.232;2023-01-31T11:29:39;99878.59;;;6.96;55.07
33697;BME280;20031;43.416;23.232;2023-01-31T11:32:31;99883.41;;;6.91;55.21
33697;BME280;20031;43.416;23.232;2023-01-31T11:35:05;99881.75;;;6.90;56.00
33697;BME280;20031;43.416;23.232;2023-01-31T11:37:32;99883.13;;;6.85;55.80
33697;BME280;20031;43.416;23.232;2023-01-31T11:40:02;99884.22;;;6.82;56.03
33697;BME280;20031;43.416;23.232;2023-01-31T11:42:50;99884.78;;;6.76;55.91
33697;BME280;20031;43.416;23.232;2023-01-31T11:45:19;99887.50;;;6.75;55.84
33697;BME280;20031;43.416;23.232;2023-01-31T11:47:48;99899.34;;;6.68;56.40
33697;BME280;20031;43.416;23.232;2023-01-31T11:50:23;99882.47;;;6.64;56.99
33697;BME280;20031;43.416;23.232;2023-01-31T11:52:58;99893.22;;;6.69;57.22
33697;BME280;20031;43.416;23.232;2023-01-31T11:55:25;99883.13;;;6.75;57.04
33697;BME280;20031;43.416;23.232;2023-01-31T11:57:58;99880.16;;;6.70;56.50
33697;BME280;20031;43.416;23.232;2023-01-31T12:00:27;99869.66;;;6.62;56.53
33697;BME280;20031;43.416;23.232;2023-01-31T12:03:04;99864.81;;;6.50;56.73
33697;BME280;20031;43.416;23.232;2023-01-31T12:05:44;99864.94;;;6.39;56.44
33697;BME280;20031;43.416;23.232;2023-01-31T12:10:54;99877.31;;;6.26;57.30
33697;BME280;20031;43.416;23.232;2023-01-31T12:13:20;99879.06;;;6.26;57.36
33697;BME280;20031;43.416;23.232;2023-01-31T12:16:03;99890.91;;;6.28;57.43
33697;BME280;20031;43.416;23.232;2023-01-31T12:21:05;99896.66;;;6.32;57.06
33697;BME280;20031;43.416;23.232;2023-01-31T12:36:49;99877.31;;;6.36;56.72
33697;BME280;20031;43.416;23.232;2023-01-31T12:42:55;99877.84;;;6.49;56.24
33697;BME280;20031;43.416;23.232;2023-01-31T12:48:25;99884.53;;;6.42;54.97
33697;BME280;20031;43.416;23.232;2023-01-31T12:53:42;99884.78;;;6.39;55.07
33697;BME280;20031;43.416;23.232;2023-01-31T12:56:20;99877.72;;;6.41;54.58
33697;BME280;20031;43.416;23.232;2023-01-31T12:58:55;99877.59;;;6.42;55.03
33697;BME280;20031;43.416;23.232;2023-01-31T13:01:36;99881.53;;;6.46;54.81
33697;BME280;20031;43.416;23.232;2023-01-31T13:06:52;99894.44;;;6.56;54.33
33697;BME280;20031;43.416;23.232;2023-01-31T13:11:47;99894.72;;;6.71;54.46
33697;BME280;20031;43.416;23.232;2023-01-31T13:14:20;99886.94;;;6.81;54.54
33697;BME280;20031;43.416;23.232;2023-01-31T13:16:51;99886.66;;;6.93;54.15
33697;BME280;20031;43.416;23.232;2023-01-31T13:19:38;99896.84;;;6.95;53.31
33697;BME280;20031;43.416;23.232;2023-01-31T13:22:11;99895.22;;;6.94;53.69
33697;BME280;20031;43.416;23.232;2023-01-31T13:24:39;99904.75;;;7.03;53.58
33697;BME280;20031;43.416;23.232;2023-01-31T13:29:48;99893.78;;;7.18;53.63
33697;BME280;20031;43.416;23.232;2023-01-31T13:32:36;99898.00;;;7.19;53.28
33697;BME280;20031;43.416;23.232;2023-01-31T13:35:21;99915.63;;;7.06;53.32
33697;BME280;20031;43.416;23.232;2023-01-31T13:37:54;99910.03;;;7.10;53.73
33697;BME280;20031;43.416;23.232;2023-01-31T13:40:23;99911.81;;;7.10;53.72
33697;BME280;20031;43.416;23.232;2023-01-31T13:42:50;99913.72;;;7.08;53.21
33697;BME280;20031;43.416;23.232;2023-01-31T13:45:30;99909.50;;;7.07;53.37
33697;BME280;20031;43.416;23.232;2023-01-31T13:48:01;99914.56;;;6.99;53.36
33697;BME280;20031;43.416;23.232;2023-01-31T13:50:38;99907.59;;;7.00;53.72
33697;BME280;20031;43.416;23.232;2023-01-31T13:53:13;99916.84;;;7.02;53.75
33697;BME280;20031;43.416;23.232;2023-01-31T13:55:44;99914.56;;;6.99;53.77
33697;BME280;20031;43.416;23.232;2023-01-31T13:58:18;99918.38;;;6.95;53.26
33697;BME280;20031;43.416;23.232;2023-01-31T14:03:23;99937.31;;;6.86;53.56
33697;BME280;20031;43.416;23.232;2023-01-31T14:05:53;99923.44;;;6.87;53.59
33697;BME280;20031;43.416;23.232;2023-01-31T14:13:44;99928.06;;;6.93;53.24
33697;BME280;20031;43.416;23.232;2023-01-31T14:18:57;99924.69;;;6.64;54.11
33697;BME280;20031;43.416;23.232;2023-01-31T14:23:58;99936.13;;;6.62;54.71
33697;BME280;20031;43.416;23.232;2023-01-31T14:29:17;99942.25;;;6.52;54.82
33697;BME280;20031;43.416;23.232;2023-01-31T14:31:45;99954.75;;;6.37;55.04
33697;BME280;20031;43.416;23.232;2023-01-31T14:34:21;99954.75;;;6.28;55.37
33697;BME280;20031;43.416;23.232;2023-01-31T14:39:51;99952.72;;;6.22;54.78
33697;BME280;20031;43.416;23.232;2023-01-31T14:42:43;99957.41;;;6.07;55.73
33697;BME280;20031;43.416;23.232;2023-01-31T14:45:42;99954.97;;;5.97;56.20
33697;BME280;20031;43.416;23.232;2023-01-31T14:51:24;99962.28;;;5.82;56.81
33697;BME280;20031;43.416;23.232;2023-01-31T14:57:18;99967.75;;;5.68;57.08
33697;BME280;20031;43.416;23.232;2023-01-31T15:04:59;99979.22;;;5.55;57.28
33697;BME280;20031;43.416;23.232;2023-01-31T15:07:25;99982.19;;;5.51;57.27
33697;BME280;20031;43.416;23.232;2023-01-31T15:09:51;99978.38;;;5.45;57.84
33697;BME280;20031;43.416;23.232;2023-01-31T15:12:56;99967.50;;;5.42;58.27